createdAt,value
2023-02-19T00:01:47.097Z,7.87
2023-02-19T00:04:18.265Z,6.73
2023-02-19T00:06:47.861Z,7.93
2023-02-19T00:09:17.794Z,9.50
2023-02-19T00:11:46.330Z,8.27
2023-02-19T00:14:17.654Z,9.23
2023-02-19T00:16:45.726Z,8.30
2023-02-19T00:19:17.014Z,8.07
2023-02-19T00:21:45.000Z,8.37
2023-02-19T00:24:14.931Z,12.97
2023-02-19T00:26:43.826Z,12.30
2023-02-19T00:29:15.484Z,11.27
2023-02-19T00:31:43.922Z,13.33
2023-02-19T00:34:13.442Z,13.37
2023-02-19T00:36:43.838Z,12.27
2023-02-19T00:39:15.861Z,13.13
2023-02-19T00:41:44.145Z,10.13
2023-02-19T00:44:13.374Z,8.97
2023-02-19T00:46:43.842Z,8.63
2023-02-19T00:49:17.481Z,8.73
2023-02-19T00:51:47.549Z,7.73
2023-02-19T00:54:16.233Z,7.40
2023-02-19T00:56:44.443Z,7.90
2023-02-19T00:59:12.782Z,9.30
2023-02-19T01:01:40.816Z,10.13
2023-02-19T01:04:09.135Z,10.80
2023-02-19T01:06:37.655Z,9.63
2023-02-19T01:09:08.012Z,11.70
2023-02-19T01:11:36.267Z,10.07
2023-02-19T01:14:05.071Z,9.80
2023-02-19T01:16:33.173Z,11.53
2023-02-19T01:19:01.805Z,10.90
2023-02-19T01:21:31.527Z,10.77
2023-02-19T01:24:00.082Z,12.63
2023-02-19T01:26:32.447Z,12.00
2023-02-19T01:29:00.856Z,10.87
2023-02-19T01:31:29.489Z,11.33
2023-02-19T01:33:59.496Z,13.30
2023-02-19T01:36:28.650Z,12.07
2023-02-19T01:38:57.028Z,9.73
2023-02-19T01:41:26.751Z,12.90
2023-02-19T01:44:01.967Z,11.30
2023-02-19T01:46:31.368Z,12.97
2023-02-19T01:49:02.221Z,11.50
2023-02-19T01:51:32.176Z,11.60
2023-02-19T01:54:03.569Z,14.33
2023-02-19T01:56:33.791Z,11.23
2023-02-19T01:59:03.797Z,11.63
2023-02-19T02:01:31.912Z,12.67
2023-02-19T02:04:00.365Z,11.90
2023-02-19T02:06:32.146Z,12.33
2023-02-19T02:09:19.060Z,11.77
2023-02-19T02:11:49.662Z,16.57
2023-02-19T02:14:22.729Z,14.43
2023-02-19T02:16:58.622Z,13.40
2023-02-19T02:19:38.663Z,11.80
2023-02-19T02:22:12.536Z,13.77
2023-02-19T02:25:32.297Z,13.60
2023-02-19T02:28:18.115Z,13.87
2023-02-19T02:30:49.858Z,8.87
2023-02-19T02:33:28.239Z,9.73
2023-02-19T02:35:59.971Z,9.83
2023-02-19T02:38:31.933Z,10.20
2023-02-19T02:41:00.168Z,8.47
2023-02-19T02:43:28.355Z,8.57
2023-02-19T02:45:57.745Z,9.00
2023-02-19T02:48:30.927Z,11.00
2023-02-19T02:51:05.723Z,10.37
2023-02-19T02:53:54.199Z,8.63
2023-02-19T02:56:23.252Z,8.50
2023-02-19T02:58:52.314Z,8.57
2023-02-19T03:01:42.406Z,9.77
2023-02-19T03:04:13.604Z,9.30
2023-02-19T03:06:45.419Z,8.43
2023-02-19T03:09:16.926Z,9.83
2023-02-19T03:12:04.299Z,7.73
2023-02-19T03:14:56.118Z,7.67
2023-02-19T03:17:49.817Z,6.23
2023-02-19T03:20:24.556Z,8.03
2023-02-19T03:22:53.963Z,10.83
2023-02-19T03:25:43.222Z,6.60
2023-02-19T03:28:13.610Z,9.10
2023-02-19T03:30:46.638Z,11.77
2023-02-19T03:33:19.690Z,8.30
2023-02-19T03:35:50.996Z,8.03
2023-02-19T03:38:22.831Z,7.93
2023-02-19T03:40:57.554Z,6.27
2023-02-19T03:43:35.839Z,8.13
2023-02-19T03:46:10.477Z,7.20
2023-02-19T03:48:46.362Z,7.43
2023-02-19T03:51:31.633Z,7.97
2023-02-19T03:54:11.419Z,6.50
2023-02-19T03:56:44.787Z,6.77
2023-02-19T03:59:17.681Z,6.30
2023-02-19T04:01:49.992Z,6.30
2023-02-19T04:04:24.028Z,7.07
2023-02-19T04:06:55.529Z,6.37
2023-02-19T04:09:26.089Z,9.63
2023-02-19T04:11:55.780Z,6.37
2023-02-19T04:14:29.343Z,6.70
2023-02-19T04:17:03.072Z,6.93
2023-02-19T04:19:36.059Z,8.97
2023-02-19T04:22:07.065Z,9.63
2023-02-19T04:24:38.447Z,12.63
2023-02-19T04:27:07.540Z,17.53
2023-02-19T04:29:37.129Z,17.37
2023-02-19T04:32:06.316Z,18.70
2023-02-19T04:34:35.662Z,17.57
2023-02-19T04:37:04.034Z,16.80
2023-02-19T04:39:32.054Z,15.23
2023-02-19T04:42:00.099Z,14.40
2023-02-19T04:44:28.149Z,15.23
2023-02-19T04:46:56.395Z,15.17
2023-02-19T04:49:24.335Z,14.60
2023-02-19T04:51:53.669Z,16.20
2023-02-19T04:54:21.696Z,18.00
2023-02-19T04:56:50.728Z,21.40
2023-02-19T04:59:18.960Z,19.00
2023-02-19T05:01:46.958Z,23.80
2023-02-19T05:04:14.985Z,26.83
2023-02-19T05:06:42.968Z,26.43
2023-02-19T05:09:12.309Z,26.00
2023-02-19T05:11:40.267Z,26.73
2023-02-19T05:14:08.279Z,27.03
2023-02-19T05:16:36.383Z,24.53
2023-02-19T05:19:04.452Z,23.07
2023-02-19T05:21:32.441Z,25.67
2023-02-19T05:24:00.450Z,22.17
2023-02-19T05:26:31.205Z,22.43
2023-02-19T05:29:00.405Z,21.57
2023-02-19T05:31:28.723Z,22.97
2023-02-19T05:33:56.841Z,20.33
2023-02-19T05:36:24.949Z,21.90
2023-02-19T05:38:54.784Z,18.37
2023-02-19T05:41:24.913Z,17.13
2023-02-19T05:43:54.509Z,17.23
2023-02-19T05:46:24.765Z,13.93
2023-02-19T05:48:53.749Z,11.47
2023-02-19T05:51:23.735Z,12.93
2023-02-19T05:53:52.342Z,10.90
2023-02-19T05:56:31.038Z,11.63
2023-02-19T05:59:00.805Z,12.63
2023-02-19T06:01:30.372Z,13.17
2023-02-19T06:03:58.878Z,16.53
2023-02-19T06:06:28.143Z,14.60
2023-02-19T06:08:56.332Z,15.53
2023-02-19T06:11:24.811Z,15.60
2023-02-19T06:13:52.791Z,18.77
2023-02-19T06:16:22.667Z,11.27
2023-02-19T06:18:52.069Z,10.40
2023-02-19T06:21:20.397Z,8.43
2023-02-19T06:23:48.363Z,10.60
2023-02-19T06:26:18.777Z,8.27
2023-02-19T06:28:47.824Z,8.07
2023-02-19T06:31:15.841Z,8.50
2023-02-19T06:33:45.423Z,8.53
2023-02-19T06:36:15.326Z,7.63
2023-02-19T06:38:43.384Z,7.40
2023-02-19T06:41:13.412Z,9.77
2023-02-19T06:43:42.256Z,7.03
2023-02-19T06:46:12.049Z,8.10
2023-02-19T06:48:41.634Z,11.27
2023-02-19T06:51:12.912Z,9.80
2023-02-19T06:53:41.076Z,12.30
2023-02-19T06:56:22.682Z,13.77
2023-02-19T06:58:50.694Z,11.20
2023-02-19T07:01:18.832Z,10.37
2023-02-19T07:03:46.931Z,9.50
2023-02-19T07:06:16.250Z,9.87
2023-02-19T07:08:44.182Z,10.70
2023-02-19T07:11:12.509Z,15.73
2023-02-19T07:13:40.602Z,14.10
2023-02-19T07:16:11.180Z,17.97
2023-02-19T07:18:39.696Z,22.50
2023-02-19T07:21:10.265Z,25.50
2023-02-19T07:23:39.998Z,26.07
2023-02-19T07:26:10.745Z,21.83
2023-02-19T07:28:38.751Z,20.43
2023-02-19T07:31:06.967Z,18.23
2023-02-19T07:33:35.114Z,15.77
2023-02-19T07:36:03.183Z,15.27
2023-02-19T07:38:31.154Z,17.97
2023-02-19T07:41:02.252Z,19.10
2023-02-19T07:43:31.943Z,26.27
2023-02-19T07:46:00.062Z,21.97
2023-02-19T07:48:28.115Z,17.97
2023-02-19T07:50:57.848Z,15.07
2023-02-19T07:53:26.795Z,17.67
2023-02-19T07:55:55.137Z,16.07
2023-02-19T07:58:24.442Z,15.03
2023-02-19T08:00:52.482Z,16.63
2023-02-19T08:03:19.585Z,18.07
2023-02-19T08:05:49.871Z,18.33
2023-02-19T08:08:18.560Z,26.73
2023-02-19T08:11:04.036Z,29.20
2023-02-19T08:13:34.234Z,32.83
2023-02-19T08:16:21.883Z,30.77
2023-02-19T08:18:54.831Z,31.87
2023-02-19T08:21:22.798Z,38.40
2023-02-19T08:23:51.304Z,28.87
2023-02-19T08:26:19.687Z,33.87
2023-02-19T08:28:49.882Z,31.97
2023-02-19T08:31:18.228Z,25.40
2023-02-19T08:33:46.191Z,22.03
2023-02-19T08:36:14.263Z,24.90
2023-02-19T08:38:42.324Z,19.83
2023-02-19T08:41:13.363Z,21.23
2023-02-19T08:43:42.174Z,18.73
2023-02-19T08:46:15.160Z,19.93
2023-02-19T08:48:43.138Z,25.90
2023-02-19T08:51:13.403Z,23.07
2023-02-19T08:53:42.382Z,20.13
2023-02-19T08:56:12.561Z,23.87
2023-02-19T08:58:40.887Z,28.03
2023-02-19T09:01:12.530Z,20.30
2023-02-19T09:03:40.907Z,24.40
2023-02-19T09:06:09.718Z,26.60
2023-02-19T09:08:37.950Z,28.00
2023-02-19T09:11:07.178Z,20.37
2023-02-19T09:13:35.174Z,19.47
2023-02-19T09:16:04.297Z,19.67
2023-02-19T09:18:34.121Z,21.33
2023-02-19T09:21:02.684Z,20.87
2023-02-19T09:23:31.094Z,17.93
2023-02-19T09:26:00.097Z,18.57
2023-02-19T09:28:28.812Z,19.90
2023-02-19T09:30:56.795Z,17.63
2023-02-19T09:33:24.764Z,17.17
2023-02-19T09:35:54.396Z,17.97
2023-02-19T09:38:22.388Z,16.43
2023-02-19T09:40:50.367Z,15.73
2023-02-19T09:43:21.484Z,14.77
2023-02-19T09:45:53.183Z,14.23
2023-02-19T09:48:21.220Z,10.87
2023-02-19T09:50:50.608Z,7.10
2023-02-19T09:53:23.709Z,8.00
2023-02-19T09:55:53.566Z,7.93
2023-02-19T09:58:28.077Z,8.47
2023-02-19T10:00:57.845Z,9.47
2023-02-19T10:03:31.874Z,10.50
2023-02-19T10:06:01.812Z,10.10
2023-02-19T10:08:34.845Z,10.73
2023-02-19T10:11:05.552Z,11.03
2023-02-19T10:13:37.115Z,11.20
2023-02-19T10:16:07.823Z,12.87
2023-02-19T10:18:41.244Z,13.93
2023-02-19T10:21:11.997Z,14.27
2023-02-19T10:23:43.216Z,17.00
2023-02-19T10:26:11.248Z,15.63
2023-02-19T10:28:39.415Z,15.93
2023-02-19T10:31:18.820Z,14.90
2023-02-19T10:33:52.990Z,22.53
2023-02-19T10:36:31.865Z,26.67
2023-02-19T10:39:02.912Z,15.87
2023-02-19T10:41:31.820Z,18.33
2023-02-19T10:44:06.642Z,13.87
2023-02-19T10:46:36.940Z,11.53
2023-02-19T10:49:07.372Z,17.90
2023-02-19T10:51:37.451Z,11.87
2023-02-19T10:54:17.238Z,17.93
2023-02-19T10:56:45.457Z,17.10
2023-02-19T10:59:24.214Z,14.30
2023-02-19T11:01:57.353Z,15.30
2023-02-19T11:04:26.976Z,12.33
2023-02-19T11:06:55.481Z,14.83
2023-02-19T11:09:32.598Z,14.87
2023-02-19T11:12:04.975Z,13.87
2023-02-19T11:14:34.906Z,16.23
2023-02-19T11:17:05.711Z,19.20
2023-02-19T11:19:37.960Z,13.17
2023-02-19T11:22:21.878Z,21.07
2023-02-19T11:24:57.320Z,19.53
2023-02-19T11:27:26.799Z,20.90
2023-02-19T11:29:54.846Z,11.97
2023-02-19T11:32:29.350Z,13.87
2023-02-19T11:35:25.313Z,15.73
2023-02-19T11:37:58.575Z,13.77
2023-02-19T11:40:38.809Z,13.43
2023-02-19T11:43:25.164Z,15.77
2023-02-19T11:46:03.447Z,11.33
2023-02-19T11:48:55.853Z,9.50
2023-02-19T11:51:52.847Z,10.63
2023-02-19T11:54:34.282Z,10.67
2023-02-19T11:57:12.490Z,12.47
2023-02-19T11:59:48.881Z,11.10
2023-02-19T12:02:44.334Z,10.70
2023-02-19T12:05:26.836Z,10.27
2023-02-19T12:08:26.935Z,9.57
2023-02-19T12:11:10.407Z,10.83
2023-02-19T12:13:56.554Z,17.63
2023-02-19T12:16:28.430Z,13.00
2023-02-19T12:19:25.316Z,35.37
2023-02-19T12:22:07.520Z,22.20
2023-02-19T12:24:55.689Z,37.27
2023-02-19T12:27:34.765Z,29.57
2023-02-19T12:30:27.938Z,23.93
2023-02-19T12:33:22.793Z,15.10
2023-02-19T12:36:05.081Z,27.30
2023-02-19T12:38:38.003Z,21.13
2023-02-19T12:41:19.368Z,29.80
2023-02-19T12:43:53.952Z,14.63
2023-02-19T12:46:29.171Z,12.17
2023-02-19T12:49:02.665Z,7.43
2023-02-19T12:51:38.571Z,10.60
2023-02-19T12:54:12.248Z,11.43
2023-02-19T12:56:44.829Z,8.97
2023-02-19T12:59:17.671Z,10.70
2023-02-19T13:01:51.053Z,14.33
2023-02-19T13:04:26.999Z,11.53
2023-02-19T13:06:59.165Z,9.60
2023-02-19T13:09:32.720Z,10.23
2023-02-19T13:12:05.498Z,10.30
2023-02-19T13:14:38.352Z,11.73
2023-02-19T13:17:20.452Z,10.13
2023-02-19T13:19:51.353Z,13.53
2023-02-19T13:22:48.568Z,11.47
2023-02-19T13:25:18.871Z,11.90
2023-02-19T13:28:02.369Z,13.53
2023-02-19T13:30:47.346Z,12.73
2023-02-19T13:33:37.357Z,12.37
2023-02-19T13:36:11.345Z,12.73
2023-02-19T13:38:41.419Z,18.53
2023-02-19T13:41:20.401Z,11.77
2023-02-19T13:43:55.008Z,12.77
2023-02-19T13:46:23.171Z,12.03
2023-02-19T13:49:45.875Z,14.83
2023-02-19T13:52:41.393Z,15.13
2023-02-19T13:55:49.825Z,17.63
2023-02-19T13:58:55.504Z,15.13
2023-02-19T14:02:17.803Z,21.43
2023-02-19T14:04:51.782Z,13.80
2023-02-19T14:07:51.333Z,11.63
2023-02-19T14:11:05.004Z,19.13
2023-02-19T14:14:06.485Z,14.83
2023-02-19T14:16:52.537Z,13.87
2023-02-19T14:19:47.716Z,13.47
2023-02-19T14:22:52.201Z,11.80
2023-02-19T14:25:29.762Z,17.83
2023-02-19T14:28:03.447Z,13.07
2023-02-19T14:30:34.874Z,16.50
2023-02-19T14:33:11.003Z,18.00
2023-02-19T14:35:43.081Z,13.63
2023-02-19T14:38:19.221Z,16.13
2023-02-19T14:40:48.613Z,23.97
2023-02-19T14:43:19.814Z,22.50
2023-02-19T14:45:50.409Z,18.33
2023-02-19T14:48:22.856Z,22.17
2023-02-19T14:50:55.849Z,30.23
2023-02-19T14:53:25.450Z,23.73
2023-02-19T14:55:56.226Z,21.57
2023-02-19T14:58:29.062Z,17.60
2023-02-19T15:00:57.072Z,20.33
2023-02-19T15:03:34.232Z,15.30
2023-02-19T15:06:09.413Z,13.07
2023-02-19T15:08:40.797Z,13.50
2023-02-19T15:11:13.569Z,16.57
2023-02-19T15:13:45.791Z,13.73
2023-02-19T15:16:19.228Z,15.37
2023-02-19T15:18:48.092Z,12.10
2023-02-19T15:21:25.470Z,12.77
2023-02-19T15:23:56.141Z,13.53
2023-02-19T15:26:35.955Z,11.80
2023-02-19T15:29:10.595Z,15.63
2023-02-19T15:31:45.257Z,10.67
2023-02-19T15:34:17.749Z,12.37
2023-02-19T15:36:48.014Z,12.03
2023-02-19T15:39:21.762Z,16.50
2023-02-19T15:41:58.523Z,16.33
2023-02-19T15:44:39.187Z,16.60
2023-02-19T15:47:15.029Z,15.93
2023-02-19T15:49:57.187Z,13.83
2023-02-19T15:52:33.302Z,16.10
2023-02-19T15:55:05.876Z,24.77
2023-02-19T15:57:39.684Z,34.17
2023-02-19T16:00:15.650Z,18.23
2023-02-19T16:02:43.812Z,17.33
2023-02-19T16:05:17.975Z,17.50
2023-02-19T16:07:47.401Z,19.93
2023-02-19T16:10:22.528Z,15.70
2023-02-19T16:12:58.007Z,13.30
2023-02-19T16:15:27.122Z,13.77
2023-02-19T16:17:55.358Z,18.17
2023-02-19T16:20:27.515Z,16.90
2023-02-19T16:23:02.838Z,21.23
2023-02-19T16:25:37.494Z,20.97
2023-02-19T16:28:13.115Z,17.47
2023-02-19T16:30:41.264Z,14.40
2023-02-19T16:33:32.901Z,16.23
2023-02-19T16:36:17.992Z,14.13
2023-02-19T16:39:04.902Z,15.73
2023-02-19T16:41:33.353Z,17.97
2023-02-19T16:44:06.532Z,19.53
2023-02-19T16:46:34.869Z,30.97
2023-02-19T16:49:02.951Z,40.30
2023-02-19T16:51:30.883Z,34.83
2023-02-19T16:53:58.886Z,49.90
2023-02-19T16:56:28.285Z,25.80
2023-02-19T16:58:56.229Z,31.00
2023-02-19T17:01:24.533Z,32.13
2023-02-19T17:03:55.266Z,29.43
2023-02-19T17:06:23.307Z,22.93
2023-02-19T17:08:51.279Z,33.47
2023-02-19T17:11:19.680Z,21.70
2023-02-19T17:13:48.998Z,20.33
2023-02-19T17:16:20.344Z,21.90
2023-02-19T17:18:48.693Z,20.53
2023-02-19T17:21:19.084Z,22.70
2023-02-19T17:23:47.243Z,22.33
2023-02-19T17:26:16.063Z,21.43
2023-02-19T17:28:44.177Z,22.37
2023-02-19T17:31:14.601Z,21.30
2023-02-19T17:33:43.676Z,19.40
2023-02-19T17:36:18.407Z,16.90
2023-02-19T17:38:46.867Z,20.97
2023-02-19T17:41:15.054Z,16.50
2023-02-19T17:43:42.985Z,19.07
2023-02-19T17:46:17.078Z,18.03
2023-02-19T17:48:45.195Z,16.87
2023-02-19T17:51:13.845Z,18.27
2023-02-19T17:53:42.321Z,28.53
2023-02-19T17:56:11.971Z,23.20
2023-02-19T17:58:39.908Z,28.60
2023-02-19T18:01:07.912Z,32.33
2023-02-19T18:03:37.208Z,33.47
2023-02-19T18:06:05.566Z,37.33
2023-02-19T18:08:33.543Z,31.07
2023-02-19T18:11:01.537Z,28.73
2023-02-19T18:13:29.593Z,29.33
2023-02-19T18:15:57.619Z,28.77
2023-02-19T18:18:25.640Z,31.23
2023-02-19T18:20:54.937Z,27.43
2023-02-19T18:23:22.935Z,25.97
2023-02-19T18:25:51.137Z,24.67
2023-02-19T18:28:19.151Z,26.50
2023-02-19T18:30:47.288Z,21.37
2023-02-19T18:33:15.279Z,21.80
2023-02-19T18:35:43.288Z,18.20
2023-02-19T18:38:12.967Z,20.53
2023-02-19T18:40:41.490Z,17.93
2023-02-19T18:43:09.556Z,14.90
2023-02-19T18:45:37.533Z,16.63
2023-02-19T18:48:06.171Z,17.33
2023-02-19T18:50:35.056Z,20.73
2023-02-19T18:53:03.173Z,20.03
2023-02-19T18:55:32.466Z,16.00
2023-02-19T18:58:00.485Z,20.17
2023-02-19T19:00:28.464Z,23.80
2023-02-19T19:02:57.840Z,17.53
2023-02-19T19:05:25.843Z,20.67
2023-02-19T19:07:55.403Z,23.53
2023-02-19T19:10:24.184Z,22.67
2023-02-19T19:12:54.126Z,18.30
2023-02-19T19:15:22.867Z,24.93
2023-02-19T19:17:51.544Z,25.70
2023-02-19T19:20:20.786Z,22.70
2023-02-19T19:22:50.829Z,28.20
2023-02-19T19:25:18.956Z,22.63
2023-02-19T19:27:47.209Z,25.60
2023-02-19T19:30:17.001Z,28.20
2023-02-19T19:32:45.198Z,27.43
2023-02-19T19:35:13.190Z,26.60
2023-02-19T19:37:41.199Z,23.33
2023-02-19T19:40:11.129Z,22.03
2023-02-19T19:42:39.072Z,19.77
2023-02-19T19:45:08.025Z,27.60
2023-02-19T19:47:37.328Z,26.43
2023-02-19T19:50:05.454Z,26.60
2023-02-19T19:52:33.475Z,26.73
2023-02-19T19:55:01.539Z,27.63
2023-02-19T19:57:29.536Z,28.40
2023-02-19T19:59:57.518Z,28.97
2023-02-19T20:02:25.547Z,26.27
2023-02-19T20:04:54.893Z,23.90
2023-02-19T20:07:22.860Z,22.33
2023-02-19T20:09:51.222Z,21.73
2023-02-19T20:12:19.231Z,25.30
2023-02-19T20:14:47.773Z,26.13
2023-02-19T20:17:16.099Z,26.90
2023-02-19T20:19:44.076Z,24.80
2023-02-19T20:22:13.453Z,29.57
2023-02-19T20:24:41.424Z,24.43
2023-02-19T20:27:09.510Z,27.57
2023-02-19T20:29:37.613Z,26.40
2023-02-19T20:32:05.980Z,24.40
2023-02-19T20:34:34.021Z,24.73
2023-02-19T20:37:02.041Z,27.57
2023-02-19T20:39:31.998Z,26.47
2023-02-19T20:42:00.578Z,30.13
2023-02-19T20:44:30.011Z,30.93
2023-02-19T20:46:59.449Z,26.13
2023-02-19T20:49:29.046Z,25.87
2023-02-19T20:51:58.968Z,31.80
2023-02-19T20:54:28.944Z,28.73
2023-02-19T20:57:00.295Z,30.07
2023-02-19T20:59:30.963Z,33.17
2023-02-19T21:01:59.631Z,24.10
2023-02-19T21:04:28.013Z,24.80
2023-02-19T21:06:55.971Z,22.93
2023-02-19T21:09:24.889Z,32.00
2023-02-19T21:11:53.327Z,23.03
2023-02-19T21:14:22.642Z,23.33
2023-02-19T21:16:50.807Z,28.03
2023-02-19T21:19:18.746Z,27.67
2023-02-19T21:21:46.724Z,20.23
2023-02-19T21:24:15.507Z,29.33
2023-02-19T21:26:44.412Z,26.30
2023-02-19T21:29:18.575Z,31.07
2023-02-19T21:31:49.355Z,26.53
2023-02-19T21:34:18.967Z,28.70
2023-02-19T21:36:47.286Z,28.27
2023-02-19T21:39:16.832Z,24.97
2023-02-19T21:41:44.901Z,32.77
2023-02-19T21:44:12.935Z,27.37
2023-02-19T21:46:41.049Z,34.13
2023-02-19T21:49:10.962Z,32.63
2023-02-19T21:51:40.811Z,29.23
2023-02-19T21:54:14.189Z,30.93
2023-02-19T21:56:42.151Z,28.17
2023-02-19T21:59:10.505Z,32.90
2023-02-19T22:01:39.700Z,34.87
2023-02-19T22:04:08.654Z,35.47
2023-02-19T22:06:39.169Z,36.93
2023-02-19T22:09:07.948Z,32.17
2023-02-19T22:11:35.937Z,33.90
2023-02-19T22:14:04.337Z,29.73
2023-02-19T22:16:32.442Z,29.97
2023-02-19T22:19:00.928Z,34.50
2023-02-19T22:21:32.375Z,33.00
2023-02-19T22:24:03.129Z,30.43
2023-02-19T22:26:33.177Z,35.00
2023-02-19T22:29:05.823Z,32.63
2023-02-19T22:31:34.509Z,43.53
2023-02-19T22:34:02.958Z,44.10
2023-02-19T22:36:33.139Z,36.27
2023-02-19T22:39:03.035Z,33.53
2023-02-19T22:41:31.526Z,29.20
2023-02-19T22:44:00.265Z,31.43
2023-02-19T22:46:30.500Z,26.57
2023-02-19T22:48:59.472Z,32.50
2023-02-19T22:51:27.756Z,33.07
2023-02-19T22:53:57.814Z,31.77
2023-02-19T22:56:28.802Z,36.73
2023-02-19T22:58:58.024Z,34.37
2023-02-19T23:01:26.429Z,32.00
2023-02-19T23:03:56.289Z,28.37
2023-02-19T23:06:26.566Z,28.77
2023-02-19T23:08:55.562Z,28.83
2023-02-19T23:11:24.909Z,30.47
2023-02-19T23:13:54.608Z,28.57
2023-02-19T23:16:22.960Z,28.97
2023-02-19T23:18:51.025Z,27.93
2023-02-19T23:21:20.237Z,28.03
2023-02-19T23:23:48.809Z,25.67
2023-02-19T23:26:17.536Z,27.93
2023-02-19T23:28:46.372Z,29.47
2023-02-19T23:31:16.533Z,25.80
2023-02-19T23:33:45.191Z,30.37
2023-02-19T23:36:14.665Z,28.03
2023-02-19T23:38:45.531Z,30.67
2023-02-19T23:41:15.788Z,24.87
2023-02-19T23:43:43.824Z,26.17
2023-02-19T23:46:17.995Z,24.30
2023-02-19T23:48:47.006Z,25.57
2023-02-19T23:51:15.100Z,23.90
2023-02-19T23:53:43.062Z,31.23
2023-02-19T23:56:11.522Z,28.90
2023-02-19T23:58:39.687Z,24.60
